Lawson Army Air Field (Fort Benning)
KLSF : now visible

Airfield :











YOU CAN JOIN US ON...

 
LOGIN :

Register | Disclaimer

   EN    FR    IT 

 









Legend :    VFR   Marginal VFR   IFR   Intensive IFR   Very Intensive IFR
Visi :
Ceiling :
>= 8 km
>= 3000ft
5 to 8 km
1000 to 3000 ft
1500m to 5 km
500 to 1000 ft
800 to 1500m
200 to 500 ft
< 800m
< 200 ft
Symbols :   Thunderstorms  Fog  Heavy snow  Heavy precipitations  Wind > 20 kt






- Airport Elevation : 232 ft


KLSF - Lawson Army Air Field (Fort Benning)

CURRENT METAR :
  • 080730Z AUTO 00000KT 10SM BKN037 BKN075 08/07 A3024 RMK AO2 SLP245 $

EXPIRED METARs :
  • 080655Z AUTO 00000KT 10SM CLR 08/07 A3024 RMK AO2 SLP245 T00750066 $
  • 080555Z AUTO 00000KT 10SM FEW100 07/06 A3024 RMK AO2 SLP245 T00700058 10163 20070 58003 $
  • 080455Z AUTO 10003KT 10SM CLR 09/07 A3024 RMK AO2 SLP245 T00910070 402340000 $

TAF TAF KLSF
Valid from the 07 at 22:00 until the 09 at 04:00 UTC


072200Z 0722/0904 15007KT 9999 FEW055 FEW120 BKN300 QNH3020INS
BECMG 0801/0802 13002KT 9999 FEW030 SCT055 BKN300 QNH3018INS
BECMG 0808/0809 00000KT 9999 SCT035 BKN055 OVC300 QNH3019INS
BECMG 0815/0816 14005KT 9999 FEW035 SCT055 BKN120 BKN250 QNH3018INS
TEMPO 0817/0822 16010G15KT 9999 VCSH BKN050
BECMG 0822/0823 14005KT 9999 SCT030 BKN050 OVC200 QNH3017INS TX25/0820Z TN10/0812Z LAST NO AMDS AFT 0804 NEXT 0814
KZTL FIR / North America



MET'MAP, your aeronautical weather chart ! - Copyright ORBIFLY December 2007 - Disclaimer

ORBIFLY MET'MAP TEAM :

Programming & Development : Alexandra Zaïnal
Original concept : Baudouin d'Aumeries
Technical & hardware support : Manuel Goepfert
Assistance : Marc-Olivier Méhu




SOURCES & CREDITS :

   NOAA       Earth
Advisory